createdAt,value
2023-02-06T00:00:26.288Z,17.20
2023-02-06T00:01:26.261Z,17.90
2023-02-06T00:02:27.291Z,18.70
2023-02-06T00:03:26.286Z,17.70
2023-02-06T00:04:26.254Z,17.70
2023-02-06T00:05:26.282Z,17.90
2023-02-06T00:06:26.235Z,18.90
2023-02-06T00:07:26.240Z,19.40
2023-02-06T00:08:26.250Z,21.20
2023-02-06T00:09:26.214Z,24.20
2023-02-06T00:10:26.203Z,23.80
2023-02-06T00:11:26.199Z,22.70
2023-02-06T00:12:26.193Z,21.80
2023-02-06T00:13:26.203Z,21.80
2023-02-06T00:14:26.168Z,21.50
2023-02-06T00:15:26.223Z,19.50
2023-02-06T00:16:26.157Z,19.90
2023-02-06T00:17:26.149Z,19.90
2023-02-06T00:18:26.169Z,20.40
2023-02-06T00:19:26.128Z,21.00
2023-02-06T00:20:26.123Z,20.10
2023-02-06T00:21:26.173Z,20.00
2023-02-06T00:22:26.106Z,19.80
2023-02-06T00:23:26.136Z,19.20
2023-02-06T00:24:26.089Z,20.00
2023-02-06T00:25:26.087Z,20.50
2023-02-06T00:26:26.081Z,19.00
2023-02-06T00:27:26.068Z,19.80
2023-02-06T00:28:26.067Z,19.60
2023-02-06T00:29:26.075Z,19.80
2023-02-06T00:30:26.066Z,20.00
2023-02-06T00:31:26.060Z,20.50
2023-02-06T00:32:26.093Z,20.20
2023-02-06T00:33:26.019Z,20.60
2023-02-06T00:34:26.037Z,20.30
2023-02-06T00:35:26.006Z,19.80
2023-02-06T00:36:27.004Z,21.00
2023-02-06T00:37:25.996Z,21.30
2023-02-06T00:38:25.991Z,20.70
2023-02-06T00:39:26.006Z,20.90
2023-02-06T00:40:25.970Z,21.20
2023-02-06T00:41:25.967Z,23.10
2023-02-06T00:42:25.954Z,21.90
2023-02-06T00:43:25.949Z,21.50
2023-02-06T00:44:25.965Z,20.60
2023-02-06T00:45:25.931Z,21.00
2023-02-06T00:46:25.951Z,20.30
2023-02-06T00:47:25.922Z,20.60
2023-02-06T00:48:25.922Z,19.80
2023-02-06T00:49:25.929Z,20.50
2023-02-06T00:50:25.894Z,21.00
2023-02-06T00:51:25.884Z,19.30
2023-02-06T00:52:25.881Z,20.40
2023-02-06T00:53:25.871Z,20.30
2023-02-06T00:54:25.886Z,20.80
2023-02-06T00:55:25.850Z,19.60
2023-02-06T00:56:25.849Z,19.80
2023-02-06T00:57:25.848Z,20.10
2023-02-06T00:58:25.837Z,19.90
2023-02-06T00:59:25.844Z,20.50
2023-02-06T01:00:25.814Z,20.00
2023-02-06T01:01:25.812Z,20.60
2023-02-06T01:02:25.827Z,19.40
2023-02-06T01:03:25.788Z,19.70
2023-02-06T01:04:25.794Z,19.00
2023-02-06T01:05:26.776Z,19.50
2023-02-06T01:06:25.780Z,19.70
2023-02-06T01:07:25.766Z,20.40
2023-02-06T01:08:25.749Z,20.20
2023-02-06T01:09:25.771Z,20.10
2023-02-06T01:10:25.722Z,20.30
2023-02-06T01:11:26.725Z,20.80
2023-02-06T01:12:25.718Z,19.50
2023-02-06T01:13:25.705Z,19.10
2023-02-06T01:14:25.725Z,19.30
2023-02-06T01:15:25.698Z,20.80
2023-02-06T01:16:25.748Z,20.70
2023-02-06T01:17:25.679Z,20.70
2023-02-06T01:18:25.672Z,22.00
2023-02-06T01:19:25.687Z,21.20
2023-02-06T01:20:25.653Z,20.80
2023-02-06T01:21:25.652Z,21.10
2023-02-06T01:22:26.639Z,20.80
2023-02-06T01:23:25.631Z,22.10
2023-02-06T01:24:25.647Z,22.00
2023-02-06T01:25:25.614Z,21.20
2023-02-06T01:26:25.604Z,21.90
2023-02-06T01:27:25.594Z,22.80
2023-02-06T01:28:25.594Z,22.30
2023-02-06T01:29:25.611Z,21.20
2023-02-06T01:30:25.630Z,20.90
2023-02-06T01:31:25.626Z,22.30
2023-02-06T01:32:25.566Z,21.70
2023-02-06T01:33:25.557Z,21.60
2023-02-06T01:34:25.578Z,21.60
2023-02-06T01:35:25.544Z,22.10
2023-02-06T01:36:25.537Z,22.40
2023-02-06T01:37:25.534Z,21.60
2023-02-06T01:38:25.519Z,21.10
2023-02-06T01:39:25.534Z,21.60
2023-02-06T01:40:25.509Z,21.20
2023-02-06T01:41:25.490Z,21.80
2023-02-06T01:42:25.497Z,21.80
2023-02-06T01:43:25.493Z,22.60
2023-02-06T01:44:25.495Z,21.70
2023-02-06T01:45:25.468Z,22.30
2023-02-06T01:46:25.489Z,22.10
2023-02-06T01:47:25.447Z,21.00
2023-02-06T01:48:25.447Z,22.30
2023-02-06T01:49:25.456Z,20.60
2023-02-06T01:50:25.433Z,21.60
2023-02-06T01:51:25.418Z,21.80
2023-02-06T01:52:25.407Z,21.80
2023-02-06T01:53:25.400Z,21.40
2023-02-06T01:54:25.432Z,22.50
2023-02-06T01:55:25.384Z,22.80
2023-02-06T01:56:25.376Z,21.70
2023-02-06T01:57:25.374Z,21.50
2023-02-06T01:58:25.362Z,20.40
2023-02-06T01:59:25.376Z,21.70
2023-02-06T02:00:25.392Z,23.40
2023-02-06T02:01:25.340Z,22.30
2023-02-06T02:02:25.335Z,21.40
2023-02-06T02:03:25.320Z,22.20
2023-02-06T02:04:25.338Z,22.60
2023-02-06T02:05:25.302Z,21.50
2023-02-06T02:06:25.303Z,23.00
2023-02-06T02:07:25.286Z,23.60
2023-02-06T02:08:25.277Z,22.50
2023-02-06T02:09:25.296Z,23.70
2023-02-06T02:10:25.262Z,24.30
2023-02-06T02:11:25.249Z,23.80
2023-02-06T02:12:26.252Z,23.30
2023-02-06T02:13:25.254Z,23.40
2023-02-06T02:14:25.260Z,21.70
2023-02-06T02:15:25.228Z,21.40
2023-02-06T02:16:25.290Z,21.90
2023-02-06T02:17:25.214Z,21.60
2023-02-06T02:18:25.203Z,22.00
2023-02-06T02:19:25.232Z,21.60
2023-02-06T02:20:25.195Z,20.70
2023-02-06T02:21:25.178Z,21.00
2023-02-06T02:22:25.170Z,21.30
2023-02-06T02:23:25.159Z,22.30
2023-02-06T02:24:25.160Z,21.60
2023-02-06T02:25:25.181Z,22.30
2023-02-06T02:26:25.142Z,21.30
2023-02-06T02:27:25.128Z,21.00
2023-02-06T02:28:25.141Z,21.00
2023-02-06T02:29:25.125Z,21.70
2023-02-06T02:30:25.169Z,21.30
2023-02-06T02:31:25.129Z,22.00
2023-02-06T02:32:25.096Z,20.90
2023-02-06T02:33:25.088Z,22.40
2023-02-06T02:34:25.076Z,21.90
2023-02-06T02:35:25.103Z,20.70
2023-02-06T02:36:25.064Z,21.30
2023-02-06T02:37:25.055Z,20.80
2023-02-06T02:38:25.049Z,20.90
2023-02-06T02:39:25.152Z,21.60
2023-02-06T02:40:25.059Z,22.20
2023-02-06T02:41:25.026Z,21.60
2023-02-06T02:42:25.024Z,22.20
2023-02-06T02:43:25.018Z,22.30
2023-02-06T02:44:24.999Z,21.60
2023-02-06T02:45:25.083Z,22.00
2023-02-06T02:46:24.991Z,21.50
2023-02-06T02:47:24.977Z,22.60
2023-02-06T02:48:24.968Z,21.30
2023-02-06T02:49:24.956Z,22.40
2023-02-06T02:50:24.974Z,21.20
2023-02-06T02:51:24.963Z,21.30
2023-02-06T02:52:24.936Z,22.00
2023-02-06T02:53:24.926Z,20.90
2023-02-06T02:54:24.923Z,22.10
2023-02-06T02:55:24.951Z,21.50
2023-02-06T02:56:24.904Z,21.50
2023-02-06T02:57:24.896Z,23.00
2023-02-06T02:58:24.919Z,21.10
2023-02-06T02:59:24.874Z,21.10
2023-02-06T03:00:24.891Z,20.20
2023-02-06T03:01:24.858Z,21.50
2023-02-06T03:02:24.940Z,20.60
2023-02-06T03:03:24.843Z,21.40
2023-02-06T03:04:24.843Z,20.80
2023-02-06T03:05:24.858Z,21.50
2023-02-06T03:06:24.834Z,21.00
2023-02-06T03:07:24.819Z,21.30
2023-02-06T03:08:24.805Z,21.10
2023-02-06T03:09:24.796Z,22.30
2023-02-06T03:10:24.803Z,21.10
2023-02-06T03:11:24.877Z,20.30
2023-02-06T03:12:24.788Z,21.80
2023-02-06T03:13:24.764Z,21.70
2023-02-06T03:14:24.760Z,23.20
2023-02-06T03:15:24.776Z,23.10
2023-02-06T03:16:24.764Z,22.20
2023-02-06T03:17:24.729Z,23.00
2023-02-06T03:18:24.731Z,23.30
2023-02-06T03:19:24.720Z,22.60
2023-02-06T03:20:24.734Z,23.90
2023-02-06T03:21:24.704Z,22.20
2023-02-06T03:22:24.698Z,22.50
2023-02-06T03:23:24.693Z,23.50
2023-02-06T03:24:24.685Z,22.20
2023-02-06T03:25:24.704Z,22.40
2023-02-06T03:26:24.662Z,22.80
2023-02-06T03:27:24.656Z,22.20
2023-02-06T03:28:24.643Z,21.70
2023-02-06T03:29:24.645Z,21.60
2023-02-06T03:30:24.655Z,23.30
2023-02-06T03:31:24.667Z,21.80
2023-02-06T03:32:24.632Z,22.00
2023-02-06T03:33:24.608Z,21.60
2023-02-06T03:34:24.598Z,21.60
2023-02-06T03:35:24.625Z,21.70
2023-02-06T03:36:24.579Z,22.70
2023-02-06T03:37:24.573Z,22.40
2023-02-06T03:38:24.577Z,23.30
2023-02-06T03:39:24.555Z,22.30
2023-02-06T03:40:24.553Z,21.50
2023-02-06T03:41:24.572Z,21.30
2023-02-06T03:42:24.544Z,21.80
2023-02-06T03:43:24.531Z,22.30
2023-02-06T03:44:24.520Z,21.80
2023-02-06T03:45:24.509Z,21.00
2023-02-06T03:46:24.536Z,21.50
2023-02-06T03:47:24.500Z,21.60
2023-02-06T03:48:24.492Z,21.50
2023-02-06T03:49:24.490Z,20.30
2023-02-06T03:50:24.483Z,21.00
2023-02-06T03:51:24.493Z,21.20
2023-02-06T03:52:24.459Z,21.90
2023-02-06T03:53:24.454Z,21.10
2023-02-06T03:54:24.454Z,21.70
2023-02-06T03:55:24.436Z,21.00
2023-02-06T03:56:24.449Z,20.80
2023-02-06T03:57:24.426Z,20.60
2023-02-06T03:58:24.813Z,21.00
2023-02-06T03:59:25.411Z,21.10
2023-02-06T04:00:24.402Z,21.30
2023-02-06T04:01:24.448Z,21.90
2023-02-06T04:02:24.447Z,20.50
2023-02-06T04:03:24.372Z,21.70
2023-02-06T04:04:24.362Z,23.00
2023-02-06T04:05:24.361Z,22.00
2023-02-06T04:06:24.375Z,23.40
2023-02-06T04:07:24.342Z,23.20
2023-02-06T04:08:24.343Z,21.80
2023-02-06T04:09:24.324Z,23.10
2023-02-06T04:10:26.226Z,20.80
2023-02-06T04:11:25.340Z,21.60
2023-02-06T04:12:24.307Z,20.70
2023-02-06T04:13:24.301Z,21.60
2023-02-06T04:14:24.286Z,21.50
2023-02-06T04:15:24.279Z,20.80
2023-02-06T04:16:24.330Z,20.80
2023-02-06T04:17:40.785Z,20.70
2023-02-06T04:18:26.254Z,21.20
2023-02-06T04:19:24.272Z,21.30
2023-02-06T04:20:24.247Z,20.30
2023-02-06T04:21:24.261Z,22.20
2023-02-06T04:22:24.230Z,21.90
2023-02-06T04:23:24.219Z,21.30
2023-02-06T04:24:24.212Z,22.80
2023-02-06T04:25:24.199Z,22.30
2023-02-06T04:26:24.221Z,21.40
2023-02-06T04:27:24.183Z,20.90
2023-02-06T04:28:25.176Z,22.20
2023-02-06T04:29:24.173Z,21.60
2023-02-06T04:30:24.179Z,21.30
2023-02-06T04:31:24.265Z,22.10
2023-02-06T04:32:24.144Z,21.50
2023-02-06T04:33:24.136Z,21.40
2023-02-06T04:34:24.129Z,21.50
2023-02-06T04:35:24.132Z,20.80
2023-02-06T04:36:24.143Z,21.50
2023-02-06T04:37:24.107Z,21.30
2023-02-06T04:38:24.096Z,22.00
2023-02-06T04:39:24.093Z,22.20
2023-02-06T04:40:24.098Z,22.30
2023-02-06T04:41:24.114Z,22.60
2023-02-06T04:42:24.073Z,21.80
2023-02-06T04:43:24.058Z,20.80
2023-02-06T04:44:24.068Z,20.80
2023-02-06T04:45:24.040Z,21.90
2023-02-06T04:46:24.043Z,20.00
2023-02-06T04:47:24.149Z,20.50
2023-02-06T04:48:24.020Z,20.80
2023-02-06T04:49:24.016Z,21.20
2023-02-06T04:50:24.002Z,21.90
2023-02-06T04:51:24.000Z,21.10
2023-02-06T04:52:24.015Z,20.00
2023-02-06T04:53:23.981Z,19.40
2023-02-06T04:54:23.987Z,20.30
2023-02-06T04:55:23.960Z,20.40
2023-02-06T04:56:23.959Z,20.10
2023-02-06T04:57:23.989Z,20.80
2023-02-06T04:58:23.939Z,20.00
2023-02-06T04:59:23.930Z,19.40
2023-02-06T05:00:23.928Z,19.50
2023-02-06T05:01:23.962Z,19.10
2023-02-06T05:02:24.016Z,18.30
2023-02-06T05:03:23.904Z,18.70
2023-02-06T05:04:23.889Z,19.30
2023-02-06T05:05:23.883Z,19.50
2023-02-06T05:06:23.881Z,18.80
2023-02-06T05:07:23.897Z,18.10
2023-02-06T05:08:23.854Z,18.70
2023-02-06T05:09:23.853Z,20.00
2023-02-06T05:10:23.885Z,19.50
2023-02-06T05:11:23.836Z,20.20
2023-02-06T05:12:23.853Z,20.90
2023-02-06T05:13:23.805Z,19.40
2023-02-06T05:14:23.800Z,19.50
2023-02-06T05:15:23.801Z,19.70
2023-02-06T05:16:23.783Z,19.20
2023-02-06T05:17:23.802Z,19.10
2023-02-06T05:18:23.789Z,19.40
2023-02-06T05:19:23.765Z,20.10
2023-02-06T05:20:23.757Z,19.70
2023-02-06T05:21:23.749Z,22.60
2023-02-06T05:22:23.762Z,21.90
2023-02-06T05:23:23.726Z,21.50
2023-02-06T05:24:23.718Z,22.10
2023-02-06T05:25:23.715Z,22.40
2023-02-06T05:26:23.707Z,22.50
2023-02-06T05:27:23.738Z,22.50
2023-02-06T05:28:23.697Z,22.30
2023-02-06T05:29:23.681Z,21.00
2023-02-06T05:30:23.668Z,20.50
2023-02-06T05:31:23.840Z,19.90
2023-02-06T05:32:23.686Z,20.10
2023-02-06T05:33:23.654Z,20.80
2023-02-06T05:34:23.642Z,20.30
2023-02-06T05:35:23.636Z,20.50
2023-02-06T05:36:23.630Z,20.20
2023-02-06T05:37:23.637Z,20.40
2023-02-06T05:38:24.610Z,21.20
2023-02-06T05:39:23.602Z,19.30
2023-02-06T05:40:23.607Z,20.50
2023-02-06T05:41:23.614Z,19.90
2023-02-06T05:42:23.610Z,20.40
2023-02-06T05:43:23.575Z,19.90
2023-02-06T05:44:23.574Z,20.80
2023-02-06T05:45:23.565Z,19.60
2023-02-06T05:46:23.590Z,19.00
2023-02-06T05:47:23.579Z,19.50
2023-02-06T05:48:23.541Z,20.00
2023-02-06T05:49:23.534Z,20.50
2023-02-06T05:50:23.521Z,20.40
2023-02-06T05:51:23.516Z,22.50
2023-02-06T05:52:23.534Z,21.20
2023-02-06T05:53:23.507Z,21.30
2023-02-06T05:54:23.497Z,20.00
2023-02-06T05:55:23.490Z,20.40
2023-02-06T05:56:23.484Z,21.10
2023-02-06T05:57:23.495Z,21.70
2023-02-06T05:58:23.467Z,21.10
2023-02-06T05:59:23.453Z,18.50
2023-02-06T06:00:23.452Z,19.50
2023-02-06T06:01:23.448Z,20.00
2023-02-06T06:02:23.471Z,19.30
2023-02-06T06:03:23.456Z,20.30
2023-02-06T06:04:23.444Z,21.10
2023-02-06T06:05:23.407Z,21.20
2023-02-06T06:06:23.405Z,21.60
2023-02-06T06:07:23.403Z,21.60
2023-02-06T06:08:23.412Z,22.30
2023-02-06T06:09:23.382Z,20.90
2023-02-06T06:10:23.375Z,20.40
2023-02-06T06:11:23.366Z,18.80
2023-02-06T06:12:23.364Z,18.10
2023-02-06T06:13:23.372Z,19.80
2023-02-06T06:14:23.352Z,19.40
2023-02-06T06:15:23.333Z,21.20
2023-02-06T06:16:23.410Z,20.20
2023-02-06T06:17:23.318Z,20.40
2023-02-06T06:18:23.340Z,20.20
2023-02-06T06:19:23.298Z,21.00
2023-02-06T06:20:23.304Z,21.50
2023-02-06T06:21:23.283Z,21.70
2023-02-06T06:22:23.290Z,21.30
2023-02-06T06:23:23.333Z,19.90
2023-02-06T06:24:23.265Z,19.80
2023-02-06T06:25:23.257Z,18.60
2023-02-06T06:26:23.249Z,19.40
2023-02-06T06:27:23.246Z,20.30
2023-02-06T06:28:23.256Z,19.50
2023-02-06T06:29:23.232Z,19.50
2023-02-06T06:30:23.216Z,20.10
2023-02-06T06:31:23.321Z,21.70
2023-02-06T06:32:23.195Z,20.10
2023-02-06T06:33:23.218Z,19.80
2023-02-06T06:34:23.191Z,20.90
2023-02-06T06:35:23.181Z,21.20
2023-02-06T06:36:23.175Z,20.20
2023-02-06T06:37:23.146Z,20.00
2023-02-06T06:38:24.184Z,17.40
2023-02-06T06:39:23.127Z,19.80
2023-02-06T06:40:24.129Z,17.10
2023-02-06T06:41:23.140Z,18.00
2023-02-06T06:42:23.123Z,19.50
2023-02-06T06:43:23.150Z,19.30
2023-02-06T06:44:23.093Z,21.10
2023-02-06T06:45:24.198Z,20.60
2023-02-06T06:46:23.082Z,20.80
2023-02-06T06:47:23.081Z,21.10
2023-02-06T06:48:23.102Z,22.10
2023-02-06T06:49:23.079Z,22.10
2023-02-06T06:50:23.065Z,20.00
2023-02-06T06:51:23.047Z,19.70
2023-02-06T06:52:25.605Z,21.50
2023-02-06T06:53:24.065Z,23.10
2023-02-06T06:54:23.023Z,22.70
2023-02-06T06:55:23.035Z,22.00
2023-02-06T06:56:23.008Z,22.40
2023-02-06T06:57:23.007Z,20.50
2023-02-06T06:58:23.015Z,21.00
2023-02-06T06:59:22.984Z,19.50
2023-02-06T07:00:22.981Z,21.30
2023-02-06T07:01:23.013Z,21.10
2023-02-06T07:02:22.974Z,20.90
2023-02-06T07:03:23.042Z,21.60
2023-02-06T07:04:23.022Z,21.20
2023-02-06T07:05:22.941Z,23.10
2023-02-06T07:06:22.933Z,21.80
2023-02-06T07:07:22.947Z,22.30
2023-02-06T07:08:22.960Z,22.00
2023-02-06T07:09:22.916Z,21.20
2023-02-06T07:10:22.908Z,20.80
2023-02-06T07:11:22.896Z,21.20
2023-02-06T07:12:22.881Z,20.60
2023-02-06T07:13:22.911Z,20.50
2023-02-06T07:14:22.873Z,21.70
2023-02-06T07:15:22.864Z,22.10
2023-02-06T07:16:22.898Z,22.10
2023-02-06T07:17:22.863Z,21.40
2023-02-06T07:18:22.873Z,21.00
2023-02-06T07:19:22.866Z,21.50
2023-02-06T07:20:22.823Z,20.50
2023-02-06T07:21:22.816Z,21.10
2023-02-06T07:22:22.807Z,21.40
2023-02-06T07:23:22.832Z,21.20
2023-02-06T07:24:22.795Z,19.70
2023-02-06T07:25:22.774Z,20.00
2023-02-06T07:26:23.784Z,18.90
2023-02-06T07:27:22.884Z,20.00
2023-02-06T07:28:22.795Z,19.40
2023-02-06T07:29:22.753Z,20.10
2023-02-06T07:30:22.778Z,20.20
2023-02-06T07:31:22.767Z,19.00
2023-02-06T07:32:22.733Z,19.70
2023-02-06T07:33:22.728Z,20.40
2023-02-06T07:34:22.737Z,22.30
2023-02-06T07:35:22.701Z,21.00
2023-02-06T07:36:22.697Z,20.10
2023-02-06T07:37:22.694Z,19.80
2023-02-06T07:38:22.711Z,18.50
2023-02-06T07:39:22.697Z,19.10
2023-02-06T07:40:22.665Z,21.70
2023-02-06T07:41:22.661Z,21.80
2023-02-06T07:42:22.665Z,21.10
2023-02-06T07:43:22.651Z,21.50
2023-02-06T07:44:22.659Z,19.40
2023-02-06T07:45:22.641Z,18.30
2023-02-06T07:46:22.642Z,17.50
2023-02-06T07:47:22.622Z,17.20
2023-02-06T07:48:22.607Z,17.20
2023-02-06T07:49:22.621Z,16.30
2023-02-06T07:50:22.589Z,16.50
2023-02-06T07:51:22.574Z,16.30
2023-02-06T07:52:22.564Z,15.20
2023-02-06T07:53:22.574Z,14.20
2023-02-06T07:54:22.581Z,16.60
2023-02-06T07:55:22.550Z,17.00
2023-02-06T07:56:22.560Z,15.00
2023-02-06T07:57:22.528Z,10.40
2023-02-06T07:58:22.524Z,9.60
2023-02-06T07:59:22.549Z,10.70
2023-02-06T08:00:22.512Z,10.30
2023-02-06T08:01:22.558Z,10.80
2023-02-06T08:02:22.496Z,9.30
2023-02-06T08:03:22.492Z,8.70
2023-02-06T08:04:22.598Z,9.80
2023-02-06T08:05:22.468Z,10.10
2023-02-06T08:06:24.262Z,9.20
2023-02-06T08:07:23.464Z,9.10
2023-02-06T08:08:22.450Z,8.60
2023-02-06T08:09:22.467Z,8.70
2023-02-06T08:10:22.438Z,10.50
2023-02-06T08:11:22.427Z,10.80
2023-02-06T08:12:22.422Z,9.00
2023-02-06T08:13:22.416Z,8.10
2023-02-06T08:14:22.441Z,8.20
2023-02-06T08:15:22.404Z,9.60
2023-02-06T08:16:22.414Z,8.90
2023-02-06T08:17:22.400Z,7.80
2023-02-06T08:18:22.373Z,8.00
2023-02-06T08:19:22.390Z,7.40
2023-02-06T08:20:22.364Z,7.20
2023-02-06T08:21:22.361Z,7.50
2023-02-06T08:22:22.340Z,7.40
2023-02-06T08:23:22.405Z,8.20
2023-02-06T08:24:22.352Z,7.80
2023-02-06T08:25:22.326Z,7.60
2023-02-06T08:26:22.311Z,7.10
2023-02-06T08:27:22.304Z,6.00
2023-02-06T08:28:22.350Z,6.60
2023-02-06T08:29:22.310Z,6.70
2023-02-06T08:30:22.306Z,6.80
2023-02-06T08:31:22.343Z,6.90
2023-02-06T08:32:22.265Z,6.00
2023-02-06T08:33:22.251Z,5.90
2023-02-06T08:34:22.272Z,5.80
2023-02-06T08:35:22.239Z,6.30
2023-02-06T08:36:22.231Z,6.60
2023-02-06T08:37:22.237Z,6.50
2023-02-06T08:38:22.220Z,5.90
2023-02-06T08:39:22.231Z,5.50
2023-02-06T08:40:22.197Z,5.80
2023-02-06T08:41:22.215Z,6.10
2023-02-06T08:42:22.180Z,6.10
2023-02-06T08:43:22.177Z,5.90
2023-02-06T08:44:22.195Z,5.60
2023-02-06T08:45:22.148Z,5.60
2023-02-06T08:46:22.190Z,6.20
2023-02-06T08:47:22.169Z,5.70
2023-02-06T08:48:22.130Z,5.30
2023-02-06T08:49:22.147Z,7.10
2023-02-06T08:50:22.120Z,6.20
2023-02-06T08:51:22.104Z,5.40
2023-02-06T08:52:22.097Z,5.50
2023-02-06T08:53:22.093Z,5.60
2023-02-06T08:54:22.106Z,6.50
2023-02-06T08:55:25.394Z,5.80
2023-02-06T08:56:22.068Z,6.10
2023-02-06T08:57:22.056Z,5.70
2023-02-06T08:58:22.052Z,6.00
2023-02-06T08:59:22.065Z,6.40
2023-02-06T09:00:22.048Z,5.70
2023-02-06T09:01:22.048Z,6.40
2023-02-06T09:02:22.074Z,6.70
2023-02-06T09:03:22.048Z,5.90
2023-02-06T09:04:22.035Z,6.40
2023-02-06T09:05:21.996Z,5.70
2023-02-06T09:06:21.984Z,6.50
2023-02-06T09:07:21.983Z,6.20
2023-02-06T09:08:21.969Z,6.30
2023-02-06T09:09:21.960Z,7.00
2023-02-06T09:10:27.416Z,7.60
2023-02-06T09:11:23.940Z,7.00
2023-02-06T09:12:22.013Z,7.10
2023-02-06T09:13:21.930Z,8.70
2023-02-06T09:14:21.924Z,6.90
2023-02-06T09:15:21.951Z,8.30
2023-02-06T09:16:21.978Z,7.50
2023-02-06T09:17:21.930Z,6.80
2023-02-06T09:18:21.910Z,7.90
2023-02-06T09:19:21.913Z,6.90
2023-02-06T09:20:21.952Z,7.30
2023-02-06T09:21:21.864Z,7.50
2023-02-06T09:22:21.888Z,6.70
2023-02-06T09:23:21.848Z,6.70
2023-02-06T09:24:21.842Z,7.00
2023-02-06T09:25:21.884Z,7.40
2023-02-06T09:26:21.823Z,6.80
2023-02-06T09:27:21.817Z,7.00
2023-02-06T09:28:21.858Z,6.00
2023-02-06T09:29:21.800Z,6.20
2023-02-06T09:30:21.962Z,6.30
2023-02-06T09:31:21.821Z,6.20
2023-02-06T09:32:21.782Z,5.90
2023-02-06T09:33:21.767Z,5.40
2023-02-06T09:34:21.760Z,5.80
2023-02-06T09:35:21.772Z,6.10
2023-02-06T09:36:21.744Z,5.10
2023-02-06T09:37:21.740Z,5.80
2023-02-06T09:38:21.727Z,5.40
2023-02-06T09:39:21.722Z,5.50
2023-02-06T09:40:21.742Z,5.70
2023-02-06T09:41:21.702Z,5.20
2023-02-06T09:42:21.699Z,4.40
2023-02-06T09:43:21.695Z,4.60
2023-02-06T09:44:21.701Z,5.50
2023-02-06T09:45:21.699Z,4.80
2023-02-06T09:46:21.686Z,5.10
2023-02-06T09:47:21.680Z,4.90
2023-02-06T09:48:21.645Z,4.90
2023-02-06T09:49:21.642Z,5.00
2023-02-06T09:50:21.654Z,4.70
2023-02-06T09:51:21.658Z,4.80
2023-02-06T09:52:21.625Z,4.40
2023-02-06T09:53:21.606Z,4.80
2023-02-06T09:54:21.602Z,4.60
2023-02-06T09:55:21.637Z,4.40
2023-02-06T09:56:21.589Z,4.10
2023-02-06T09:57:21.579Z,4.60
2023-02-06T09:58:21.575Z,4.50
2023-02-06T09:59:21.575Z,4.00
2023-02-06T10:00:21.582Z,4.50
2023-02-06T10:01:21.563Z,4.50
2023-02-06T10:02:21.545Z,4.30
2023-02-06T10:03:21.535Z,4.70
2023-02-06T10:04:21.569Z,4.10
2023-02-06T10:05:21.517Z,4.70
2023-02-06T10:06:21.544Z,4.90
2023-02-06T10:07:21.528Z,4.70
2023-02-06T10:08:21.492Z,4.60
2023-02-06T10:09:21.492Z,4.90
2023-02-06T10:10:21.474Z,4.70
2023-02-06T10:11:21.494Z,4.60
2023-02-06T10:12:21.504Z,4.50
2023-02-06T10:13:21.458Z,5.00
2023-02-06T10:14:21.454Z,4.90
2023-02-06T10:15:21.437Z,4.60
2023-02-06T10:16:21.517Z,4.40
2023-02-06T10:17:21.422Z,4.10
2023-02-06T10:18:21.452Z,4.80
2023-02-06T10:19:21.442Z,4.30
2023-02-06T10:20:21.408Z,4.30
2023-02-06T10:21:21.414Z,4.60
2023-02-06T10:22:21.384Z,4.70
2023-02-06T10:23:21.386Z,5.20
2023-02-06T10:24:21.369Z,4.20
2023-02-06T10:25:21.362Z,4.50
2023-02-06T10:26:21.380Z,4.70
2023-02-06T10:27:21.350Z,5.10
2023-02-06T10:28:21.431Z,4.50
2023-02-06T10:29:21.332Z,4.40
2023-02-06T10:30:21.325Z,4.50
2023-02-06T10:31:22.434Z,4.50
2023-02-06T10:32:21.310Z,4.40
2023-02-06T10:33:25.602Z,4.30
2023-02-06T10:34:22.294Z,4.70
2023-02-06T10:35:21.284Z,4.10
2023-02-06T10:36:21.316Z,4.80
2023-02-06T10:37:21.269Z,4.90
2023-02-06T10:38:21.273Z,4.30
2023-02-06T10:39:21.254Z,4.60
2023-02-06T10:40:21.249Z,4.70
2023-02-06T10:41:21.272Z,4.10
2023-02-06T10:42:22.769Z,4.60
2023-02-06T10:43:22.247Z,3.90
2023-02-06T10:44:21.214Z,4.60
2023-02-06T10:45:21.213Z,4.80
2023-02-06T10:46:21.253Z,4.50
2023-02-06T10:47:21.195Z,4.60
2023-02-06T10:48:21.186Z,4.90
2023-02-06T10:49:21.182Z,4.80
2023-02-06T10:50:21.177Z,5.20
2023-02-06T10:51:21.197Z,4.40
2023-02-06T10:52:21.169Z,5.00
2023-02-06T10:53:21.152Z,5.20
2023-02-06T10:54:21.160Z,5.40
2023-02-06T10:55:21.144Z,4.80
2023-02-06T10:56:21.130Z,4.50
2023-02-06T10:57:21.147Z,5.50
2023-02-06T10:58:21.109Z,5.00
2023-02-06T10:59:21.107Z,4.60
2023-02-06T11:00:21.097Z,4.30
2023-02-06T11:01:26.362Z,4.70
2023-02-06T11:02:23.175Z,4.70
2023-02-06T11:03:21.073Z,4.10
2023-02-06T11:04:21.059Z,4.20
2023-02-06T11:05:21.053Z,4.40
2023-02-06T11:06:21.069Z,4.20
2023-02-06T11:07:21.065Z,4.10
2023-02-06T11:08:21.037Z,3.90
2023-02-06T11:09:21.024Z,3.70
2023-02-06T11:10:21.020Z,4.10
2023-02-06T11:11:21.009Z,4.10
2023-02-06T11:12:21.034Z,4.40
2023-02-06T11:13:20.997Z,4.30
2023-02-06T11:14:20.996Z,4.10
2023-02-06T11:15:20.979Z,3.90
2023-02-06T11:16:21.050Z,3.90
2023-02-06T11:17:21.017Z,4.40
2023-02-06T11:18:20.958Z,4.10
2023-02-06T11:19:20.948Z,3.90
2023-02-06T11:20:20.941Z,5.10
2023-02-06T11:21:20.931Z,3.80
2023-02-06T11:22:20.995Z,3.60
2023-02-06T11:23:20.918Z,4.00
2023-02-06T11:24:20.912Z,3.90
2023-02-06T11:25:20.900Z,4.00
2023-02-06T11:26:20.968Z,4.00
2023-02-06T11:27:20.918Z,4.60
2023-02-06T11:28:20.953Z,4.20
2023-02-06T11:29:20.874Z,3.60
2023-02-06T11:30:20.859Z,3.10
2023-02-06T11:31:20.898Z,3.30
2023-02-06T11:32:20.872Z,3.50
2023-02-06T11:33:20.845Z,3.40
2023-02-06T11:34:20.837Z,3.90
2023-02-06T11:35:20.829Z,3.00
2023-02-06T11:36:20.810Z,3.40
2023-02-06T11:37:21.049Z,3.50
2023-02-06T11:38:20.800Z,3.20
2023-02-06T11:39:20.799Z,3.40
2023-02-06T11:40:20.786Z,3.10
2023-02-06T11:41:20.781Z,3.50
2023-02-06T11:42:20.806Z,3.20
2023-02-06T11:43:20.765Z,3.10
2023-02-06T11:44:20.758Z,3.10
2023-02-06T11:45:20.749Z,3.70
2023-02-06T11:46:20.748Z,4.40
2023-02-06T11:47:20.877Z,2.90
2023-02-06T11:48:20.735Z,3.60
2023-02-06T11:49:20.721Z,3.20
2023-02-06T11:50:20.708Z,3.00
2023-02-06T11:51:20.713Z,3.10
2023-02-06T11:52:20.726Z,3.70
2023-02-06T11:53:20.692Z,2.80
2023-02-06T11:54:20.692Z,3.30
2023-02-06T11:55:20.678Z,3.00
2023-02-06T11:56:20.674Z,3.60
2023-02-06T11:57:20.649Z,2.70
2023-02-06T11:58:21.681Z,2.70
2023-02-06T11:59:20.861Z,3.20
2023-02-06T12:00:20.647Z,2.30
2023-02-06T12:01:20.632Z,2.60
2023-02-06T12:02:20.631Z,2.80
2023-02-06T12:03:20.693Z,2.80
2023-02-06T12:04:20.600Z,3.10
2023-02-06T12:05:20.597Z,2.70
2023-02-06T12:06:20.586Z,2.60
2023-02-06T12:07:20.582Z,2.50
2023-02-06T12:08:20.596Z,2.30
2023-02-06T12:09:20.567Z,2.70
2023-02-06T12:10:20.558Z,2.20
2023-02-06T12:11:20.557Z,2.10
2023-02-06T12:12:20.569Z,2.60
2023-02-06T12:13:20.590Z,2.20
2023-02-06T12:14:20.536Z,2.50
2023-02-06T12:15:45.559Z,3.00
2023-02-06T12:16:22.551Z,2.60
2023-02-06T12:17:20.518Z,2.70
2023-02-06T12:18:20.529Z,2.70
2023-02-06T12:19:20.494Z,2.40
2023-02-06T12:20:20.481Z,2.80
2023-02-06T12:21:20.476Z,2.30
2023-02-06T12:22:20.507Z,2.80
2023-02-06T12:23:20.485Z,2.30
2023-02-06T12:24:20.452Z,2.80
2023-02-06T12:25:20.443Z,2.50
2023-02-06T12:26:20.436Z,2.10
2023-02-06T12:27:20.429Z,2.30
2023-02-06T12:28:20.481Z,3.40
2023-02-06T12:29:20.410Z,3.10
2023-02-06T12:30:21.409Z,2.40
2023-02-06T12:31:20.605Z,2.20
2023-02-06T12:32:20.399Z,2.50
2023-02-06T12:33:20.415Z,2.50
2023-02-06T12:34:20.369Z,2.20
2023-02-06T12:35:21.366Z,1.90
2023-02-06T12:36:20.355Z,2.60
2023-02-06T12:37:20.349Z,2.40
2023-02-06T12:38:20.366Z,2.20
2023-02-06T12:39:20.339Z,2.50
2023-02-06T12:40:20.328Z,2.80
2023-02-06T12:41:20.318Z,2.50
2023-02-06T12:42:20.314Z,2.40
2023-02-06T12:43:20.331Z,3.20
2023-02-06T12:44:20.297Z,2.40
2023-02-06T12:45:20.296Z,2.30
2023-02-06T12:46:20.356Z,1.90
2023-02-06T12:47:20.276Z,2.20
2023-02-06T12:48:20.287Z,2.00
2023-02-06T12:49:20.253Z,1.90
2023-02-06T12:50:20.250Z,2.00
2023-02-06T12:51:20.242Z,2.40
2023-02-06T12:52:20.231Z,2.20
2023-02-06T12:53:20.252Z,2.30
2023-02-06T12:54:20.219Z,2.50
2023-02-06T12:55:20.207Z,2.60
2023-02-06T12:56:20.201Z,2.30
2023-02-06T12:57:20.202Z,1.90
2023-02-06T12:58:20.214Z,2.10
2023-02-06T12:59:20.180Z,1.60
2023-02-06T13:00:20.173Z,2.10
2023-02-06T13:01:29.398Z,2.10
2023-02-06T13:02:22.211Z,2.30